createdAt,value
2023-02-18T00:01:38.513Z,10.77
2023-02-18T00:04:06.822Z,13.00
2023-02-18T00:06:37.071Z,16.17
2023-02-18T00:09:06.933Z,11.63
2023-02-18T00:11:37.973Z,14.77
2023-02-18T00:14:08.639Z,13.37
2023-02-18T00:16:36.757Z,15.50
2023-02-18T00:19:07.514Z,12.70
2023-02-18T00:21:36.808Z,11.73
2023-02-18T00:24:05.481Z,16.47
2023-02-18T00:26:33.899Z,11.47
2023-02-18T00:29:03.855Z,11.77
2023-02-18T00:31:34.880Z,15.03
2023-02-18T00:34:04.325Z,14.10
2023-02-18T00:36:34.552Z,17.90
2023-02-18T00:39:05.047Z,14.23
2023-02-18T00:41:35.309Z,16.17
2023-02-18T00:44:05.688Z,11.03
2023-02-18T00:46:36.155Z,12.43
2023-02-18T00:49:05.340Z,11.70
2023-02-18T00:51:33.522Z,14.20
2023-02-18T00:54:04.873Z,12.97
2023-02-18T00:56:33.252Z,11.03
2023-02-18T00:59:01.579Z,12.07
2023-02-18T01:01:31.224Z,10.43
2023-02-18T01:03:59.668Z,11.97
2023-02-18T01:06:27.990Z,12.43
2023-02-18T01:08:56.181Z,13.00
2023-02-18T01:11:24.371Z,9.97
2023-02-18T01:13:52.519Z,12.80
2023-02-18T01:16:21.176Z,9.73
2023-02-18T01:18:50.723Z,12.43
2023-02-18T01:21:18.832Z,10.83
2023-02-18T01:23:46.943Z,11.50
2023-02-18T01:26:17.252Z,9.13
2023-02-18T01:28:45.618Z,15.43
2023-02-18T01:31:15.585Z,12.47
2023-02-18T01:33:44.383Z,9.43
2023-02-18T01:36:14.303Z,12.13
2023-02-18T01:38:42.748Z,10.27
2023-02-18T01:41:11.756Z,10.03
2023-02-18T01:43:40.164Z,9.30
2023-02-18T01:46:19.359Z,8.40
2023-02-18T01:48:51.865Z,9.23
2023-02-18T01:51:25.105Z,8.87
2023-02-18T01:53:57.760Z,10.80
2023-02-18T01:56:30.157Z,6.50
2023-02-18T01:59:01.319Z,12.23
2023-02-18T02:01:30.457Z,6.47
2023-02-18T02:03:58.540Z,9.67
2023-02-18T02:06:28.540Z,12.60
2023-02-18T02:09:00.783Z,9.40
2023-02-18T02:11:42.800Z,9.10
2023-02-18T02:14:34.827Z,6.63
2023-02-18T02:17:09.495Z,7.50
2023-02-18T02:20:21.236Z,7.97
2023-02-18T02:23:28.086Z,9.57
2023-02-18T02:26:27.363Z,13.37
2023-02-18T02:29:19.192Z,12.07
2023-02-18T02:32:09.050Z,7.90
2023-02-18T02:34:51.444Z,9.93
2023-02-18T02:37:28.728Z,9.33
2023-02-18T02:40:08.094Z,8.97
2023-02-18T02:42:47.991Z,9.80
2023-02-18T02:45:25.734Z,10.43
2023-02-18T02:48:04.950Z,7.37
2023-02-18T02:50:41.508Z,7.90
2023-02-18T02:53:17.274Z,10.07
2023-02-18T02:55:45.377Z,9.40
2023-02-18T02:58:16.521Z,9.07
2023-02-18T03:00:58.462Z,9.37
2023-02-18T03:03:53.897Z,7.57
2023-02-18T03:06:43.002Z,9.73
2023-02-18T03:09:17.856Z,8.50
2023-02-18T03:11:51.702Z,9.60
2023-02-18T03:14:29.801Z,8.23
2023-02-18T03:17:03.669Z,8.50
2023-02-18T03:19:36.354Z,11.03
2023-02-18T03:22:09.847Z,11.60
2023-02-18T03:24:42.103Z,8.20
2023-02-18T03:27:15.301Z,7.40
2023-02-18T03:29:47.229Z,9.53
2023-02-18T03:32:20.759Z,9.60
2023-02-18T03:34:54.630Z,11.40
2023-02-18T03:37:24.686Z,12.40
2023-02-18T03:39:58.556Z,10.00
2023-02-18T03:42:28.928Z,9.73
2023-02-18T03:44:57.184Z,11.03
2023-02-18T03:47:25.772Z,8.17
2023-02-18T03:49:53.913Z,8.00
2023-02-18T03:52:23.462Z,8.00
2023-02-18T03:54:52.412Z,9.20
2023-02-18T03:57:20.522Z,11.37
2023-02-18T03:59:48.650Z,11.33
2023-02-18T04:02:16.778Z,8.37
2023-02-18T04:04:44.852Z,8.53
2023-02-18T04:07:12.951Z,9.40
2023-02-18T04:09:42.494Z,8.23
2023-02-18T04:12:10.614Z,9.07
2023-02-18T04:14:38.715Z,7.57
2023-02-18T04:17:07.248Z,9.67
2023-02-18T04:19:35.513Z,11.43
2023-02-18T04:22:03.670Z,8.10
2023-02-18T04:24:31.831Z,7.23
2023-02-18T04:27:01.339Z,7.27
2023-02-18T04:29:29.481Z,9.37
2023-02-18T04:31:57.700Z,9.67
2023-02-18T04:34:25.887Z,6.93
2023-02-18T04:36:54.077Z,8.80
2023-02-18T04:39:22.132Z,7.03
2023-02-18T04:41:50.245Z,10.10
2023-02-18T04:44:19.738Z,7.20
2023-02-18T04:46:47.934Z,10.77
2023-02-18T04:49:16.045Z,6.37
2023-02-18T04:51:44.264Z,9.97
2023-02-18T04:54:12.401Z,15.00
2023-02-18T04:56:40.508Z,9.40
2023-02-18T04:59:08.613Z,5.97
2023-02-18T05:01:38.278Z,7.83
2023-02-18T05:04:06.527Z,6.00
2023-02-18T05:06:34.719Z,6.80
2023-02-18T05:09:02.855Z,6.33
2023-02-18T05:11:30.967Z,8.23
2023-02-18T05:13:59.137Z,7.10
2023-02-18T05:16:27.367Z,6.30
2023-02-18T05:18:56.903Z,8.57
2023-02-18T05:21:25.073Z,11.13
2023-02-18T05:23:53.292Z,7.17
2023-02-18T05:26:21.408Z,9.23
2023-02-18T05:28:49.512Z,6.67
2023-02-18T05:31:18.117Z,9.20
2023-02-18T05:33:46.309Z,7.33
2023-02-18T05:36:15.835Z,7.27
2023-02-18T05:38:44.075Z,6.50
2023-02-18T05:41:12.217Z,7.37
2023-02-18T05:43:54.292Z,7.07
2023-02-18T05:46:22.806Z,7.90
2023-02-18T05:48:50.962Z,6.60
2023-02-18T05:51:20.524Z,8.77
2023-02-18T05:53:48.684Z,9.30
2023-02-18T05:56:16.865Z,10.73
2023-02-18T05:58:45.118Z,5.90
2023-02-18T06:01:13.275Z,9.20
2023-02-18T06:03:41.442Z,6.03
2023-02-18T06:06:09.909Z,7.23
2023-02-18T06:08:39.825Z,7.37
2023-02-18T06:11:07.997Z,13.17
2023-02-18T06:13:36.143Z,9.17
2023-02-18T06:16:04.322Z,8.37
2023-02-18T06:18:32.558Z,6.50
2023-02-18T06:21:00.702Z,6.90
2023-02-18T06:23:29.080Z,10.20
2023-02-18T06:25:58.702Z,11.73
2023-02-18T06:28:26.809Z,12.37
2023-02-18T06:30:55.126Z,7.77
2023-02-18T06:33:23.230Z,8.10
2023-02-18T06:35:55.566Z,6.07
2023-02-18T06:38:23.783Z,6.53
2023-02-18T06:40:52.281Z,8.13
2023-02-18T06:43:23.402Z,6.90
2023-02-18T06:45:51.532Z,8.13
2023-02-18T06:48:19.671Z,7.20
2023-02-18T06:50:47.824Z,8.33
2023-02-18T06:53:17.150Z,8.47
2023-02-18T06:55:45.435Z,7.53
2023-02-18T06:58:14.912Z,6.80
2023-02-18T07:00:44.581Z,5.90
2023-02-18T07:03:13.754Z,10.77
2023-02-18T07:05:42.089Z,9.17
2023-02-18T07:08:10.709Z,8.17
2023-02-18T07:10:39.206Z,15.43
2023-02-18T07:13:07.401Z,17.87
2023-02-18T07:15:35.552Z,17.47
2023-02-18T07:18:05.335Z,14.33
2023-02-18T07:20:33.822Z,16.47
2023-02-18T07:23:02.010Z,11.67
2023-02-18T07:25:30.204Z,15.07
2023-02-18T07:27:58.497Z,8.47
2023-02-18T07:30:26.740Z,6.83
2023-02-18T07:32:54.821Z,7.47
2023-02-18T07:35:25.504Z,8.70
2023-02-18T07:37:53.720Z,8.27
2023-02-18T07:40:23.099Z,8.70
2023-02-18T07:42:51.270Z,8.00
2023-02-18T07:45:20.755Z,23.63
2023-02-18T07:47:48.893Z,11.93
2023-02-18T07:50:16.993Z,10.10
2023-02-18T07:52:46.555Z,10.30
2023-02-18T07:55:14.713Z,9.27
2023-02-18T07:57:56.708Z,12.87
2023-02-18T08:00:25.538Z,10.07
2023-02-18T08:02:53.699Z,10.00
2023-02-18T08:05:22.057Z,10.17
2023-02-18T08:07:55.057Z,9.60
2023-02-18T08:10:23.351Z,10.27
2023-02-18T08:12:51.514Z,7.13
2023-02-18T08:15:19.676Z,9.30
2023-02-18T08:17:50.833Z,9.00
2023-02-18T08:20:19.011Z,7.87
2023-02-18T08:22:47.173Z,10.80
2023-02-18T08:25:28.917Z,13.43
2023-02-18T08:27:58.038Z,10.27
2023-02-18T08:30:26.502Z,9.50
2023-02-18T08:32:55.053Z,10.97
2023-02-18T08:35:23.602Z,15.27
2023-02-18T08:37:52.851Z,10.27
2023-02-18T08:40:23.944Z,16.37
2023-02-18T08:42:52.115Z,10.63
2023-02-18T08:45:20.542Z,9.43
2023-02-18T08:48:16.547Z,10.13
2023-02-18T08:50:36.941Z,11.37
2023-02-18T08:53:05.683Z,14.57
2023-02-18T08:55:38.088Z,9.90
2023-02-18T08:58:07.601Z,11.37
2023-02-18T09:00:36.370Z,11.63
2023-02-18T09:03:04.871Z,13.00
2023-02-18T09:05:33.063Z,13.20
2023-02-18T09:08:01.431Z,10.40
2023-02-18T09:10:29.655Z,14.73
2023-02-18T09:12:59.192Z,9.13
2023-02-18T09:15:27.345Z,9.37
2023-02-18T09:17:55.520Z,13.13
2023-02-18T09:20:23.650Z,9.30
2023-02-18T09:22:51.751Z,9.07
2023-02-18T09:25:20.129Z,6.82
2023-02-18T09:27:48.311Z,7.07
2023-02-18T09:30:18.222Z,8.32
2023-02-18T09:32:46.514Z,6.55
2023-02-18T09:35:14.827Z,6.65
2023-02-18T09:37:43.009Z,9.68
2023-02-18T09:40:25.400Z,8.50
2023-02-18T09:42:56.238Z,6.40
2023-02-18T09:45:26.684Z,6.72
2023-02-18T09:47:55.372Z,10.65
2023-02-18T09:50:25.240Z,7.63
2023-02-18T09:52:54.053Z,6.45
2023-02-18T09:55:25.431Z,7.30
2023-02-18T09:57:55.600Z,9.40
2023-02-18T10:00:29.867Z,9.02
2023-02-18T10:03:00.153Z,7.97
2023-02-18T10:05:30.989Z,4.70
2023-02-18T10:08:05.373Z,7.82
2023-02-18T10:10:39.778Z,5.55
2023-02-18T10:13:15.437Z,5.05
2023-02-18T10:15:45.992Z,6.55
2023-02-18T10:18:25.923Z,9.18
2023-02-18T10:21:06.188Z,8.30
2023-02-18T10:23:37.666Z,10.30
2023-02-18T10:26:09.451Z,12.55
2023-02-18T10:28:39.167Z,7.13
2023-02-18T10:31:11.693Z,8.70
2023-02-18T10:33:47.191Z,10.43
2023-02-18T10:36:26.375Z,7.88
2023-02-18T10:39:20.985Z,8.75
2023-02-18T10:41:58.777Z,6.85
2023-02-18T10:44:37.057Z,8.45
2023-02-18T10:47:20.173Z,7.93
2023-02-18T10:49:59.399Z,8.77
2023-02-18T10:52:31.121Z,8.02
2023-02-18T10:55:05.546Z,6.47
2023-02-18T10:57:34.570Z,7.00
2023-02-18T11:00:11.882Z,8.48
2023-02-18T11:02:42.701Z,7.05
2023-02-18T11:05:20.866Z,9.88
2023-02-18T11:07:51.945Z,7.43
2023-02-18T11:10:25.932Z,11.95
2023-02-18T11:12:59.111Z,8.13
2023-02-18T11:15:29.134Z,6.93
2023-02-18T11:18:12.606Z,7.80
2023-02-18T11:20:41.598Z,5.72
2023-02-18T11:23:22.621Z,4.93
2023-02-18T11:26:01.672Z,5.80
2023-02-18T11:28:38.229Z,6.00
2023-02-18T11:31:06.889Z,7.35
2023-02-18T11:33:40.888Z,5.47
2023-02-18T11:36:19.847Z,7.00
2023-02-18T11:38:51.482Z,6.47
2023-02-18T11:41:22.252Z,6.65
2023-02-18T11:43:53.161Z,7.95
2023-02-18T11:46:23.406Z,9.85
2023-02-18T11:48:53.774Z,6.90
2023-02-18T11:51:26.651Z,7.30
2023-02-18T11:53:59.818Z,10.07
2023-02-18T11:56:30.893Z,7.75
2023-02-18T11:59:00.228Z,7.85
2023-02-18T12:01:43.118Z,10.75
2023-02-18T12:04:17.960Z,10.85
2023-02-18T12:06:55.493Z,11.40
2023-02-18T12:09:29.992Z,8.77
2023-02-18T12:12:02.512Z,11.10
2023-02-18T12:14:33.608Z,8.32
2023-02-18T12:17:25.288Z,9.80
2023-02-18T12:20:09.094Z,11.43
2023-02-18T12:22:44.560Z,10.45
2023-02-18T12:25:25.840Z,9.40
2023-02-18T12:28:06.511Z,8.27
2023-02-18T12:30:58.515Z,7.88
2023-02-18T12:33:37.095Z,8.65
2023-02-18T12:36:18.024Z,10.88
2023-02-18T12:39:02.408Z,9.00
2023-02-18T12:41:52.513Z,8.68
2023-02-18T12:44:37.298Z,10.63
2023-02-18T12:47:23.865Z,8.07
2023-02-18T12:50:37.241Z,9.32
2023-02-18T12:53:35.723Z,9.18
2023-02-18T12:56:24.554Z,10.55
2023-02-18T12:59:01.429Z,9.82
2023-02-18T13:01:37.891Z,8.45
2023-02-18T13:04:36.506Z,11.18
2023-02-18T13:07:45.393Z,9.95
2023-02-18T13:10:49.687Z,8.60
2023-02-18T13:13:21.957Z,10.32
2023-02-18T13:15:55.191Z,9.85
2023-02-18T13:18:29.324Z,10.93
2023-02-18T13:21:01.214Z,11.90
2023-02-18T13:23:34.069Z,10.38
2023-02-18T13:26:04.722Z,11.00
2023-02-18T13:28:43.132Z,8.95
2023-02-18T13:31:28.764Z,12.13
2023-02-18T13:34:02.470Z,9.43
2023-02-18T13:36:46.083Z,11.75
2023-02-18T13:39:20.341Z,12.60
2023-02-18T13:41:50.766Z,10.25
2023-02-18T13:45:03.114Z,13.60
2023-02-18T13:47:40.103Z,14.07
2023-02-18T13:50:18.199Z,12.38
2023-02-18T13:52:46.407Z,11.77
2023-02-18T13:55:22.097Z,11.13
2023-02-18T13:57:54.724Z,10.80
2023-02-18T14:00:27.022Z,10.07
2023-02-18T14:03:00.187Z,11.15
2023-02-18T14:05:41.327Z,9.57
2023-02-18T14:08:15.693Z,9.38
2023-02-18T14:10:44.461Z,9.50
2023-02-18T14:13:40.491Z,12.38
2023-02-18T14:16:12.209Z,11.02
2023-02-18T14:19:28.105Z,9.73
2023-02-18T14:22:27.179Z,14.48
2023-02-18T14:25:02.184Z,12.18
2023-02-18T14:27:31.015Z,9.65
2023-02-18T14:30:05.917Z,9.57
2023-02-18T14:32:36.053Z,13.60
2023-02-18T14:35:23.718Z,8.77
2023-02-18T14:38:24.202Z,11.45
2023-02-18T14:41:33.814Z,7.68
2023-02-18T14:44:21.934Z,9.07
2023-02-18T14:47:03.902Z,10.52
2023-02-18T14:49:44.198Z,15.52
2023-02-18T14:52:21.711Z,10.10
2023-02-18T14:54:52.191Z,12.20
2023-02-18T14:57:26.771Z,11.73
2023-02-18T15:00:01.364Z,12.27
2023-02-18T15:02:32.442Z,11.55
2023-02-18T15:05:15.350Z,14.97
2023-02-18T15:07:57.142Z,14.37
2023-02-18T15:10:33.494Z,13.63
2023-02-18T15:13:05.306Z,13.47
2023-02-18T15:15:36.321Z,12.30
2023-02-18T15:18:06.249Z,12.17
2023-02-18T15:20:36.795Z,16.80
2023-02-18T15:23:05.718Z,14.53
2023-02-18T15:25:34.124Z,14.87
2023-02-18T15:28:03.296Z,23.00
2023-02-18T15:30:32.846Z,16.20
2023-02-18T15:33:03.164Z,23.23
2023-02-18T15:35:34.115Z,18.73
2023-02-18T15:38:04.780Z,17.50
2023-02-18T15:40:37.585Z,13.80
2023-02-18T15:43:08.739Z,14.33
2023-02-18T15:45:41.504Z,17.80
2023-02-18T15:48:25.226Z,15.77
2023-02-18T15:50:58.487Z,14.77
2023-02-18T15:53:37.802Z,13.63
2023-02-18T15:56:12.522Z,17.27
2023-02-18T15:58:42.554Z,13.70
2023-02-18T16:01:28.825Z,16.77
2023-02-18T16:03:58.535Z,11.90
2023-02-18T16:06:29.921Z,16.13
2023-02-18T16:09:04.437Z,17.00
2023-02-18T16:11:37.404Z,11.07
2023-02-18T16:14:06.730Z,8.83
2023-02-18T16:16:37.507Z,12.73
2023-02-18T16:19:06.454Z,13.53
2023-02-18T16:21:40.923Z,21.90
2023-02-18T16:24:26.407Z,15.40
2023-02-18T16:26:56.545Z,13.20
2023-02-18T16:29:28.097Z,32.93
2023-02-18T16:31:56.859Z,20.80
2023-02-18T16:34:25.397Z,16.07
2023-02-18T16:37:10.021Z,14.80
2023-02-18T16:39:42.972Z,18.03
2023-02-18T16:42:15.305Z,14.03
2023-02-18T16:44:44.119Z,16.63
2023-02-18T16:47:18.243Z,16.27
2023-02-18T16:49:49.384Z,16.97
2023-02-18T16:52:19.750Z,20.03
2023-02-18T16:54:50.480Z,16.73
2023-02-18T16:57:20.210Z,17.30
2023-02-18T16:59:48.763Z,20.67
2023-02-18T17:02:22.866Z,17.73
2023-02-18T17:04:54.698Z,15.73
2023-02-18T17:07:23.588Z,23.67
2023-02-18T17:09:54.517Z,19.67
2023-02-18T17:12:24.129Z,19.23
2023-02-18T17:14:52.631Z,15.63
2023-02-18T17:17:22.932Z,16.57
2023-02-18T17:19:52.730Z,18.07
2023-02-18T17:22:21.433Z,21.90
2023-02-18T17:24:51.755Z,19.30
2023-02-18T17:27:22.898Z,18.17
2023-02-18T17:29:51.740Z,18.50
2023-02-18T17:32:20.684Z,22.13
2023-02-18T17:34:50.400Z,19.03
2023-02-18T17:37:20.706Z,18.37
2023-02-18T17:39:50.269Z,16.60
2023-02-18T17:42:21.560Z,19.57
2023-02-18T17:44:55.024Z,19.03
2023-02-18T17:47:24.272Z,17.00
2023-02-18T17:49:52.765Z,22.40
2023-02-18T17:52:31.952Z,19.13
2023-02-18T17:55:00.428Z,18.17
2023-02-18T17:57:32.750Z,16.30
2023-02-18T18:00:04.734Z,16.70
2023-02-18T18:02:39.289Z,17.67
2023-02-18T18:05:15.664Z,21.67
2023-02-18T18:07:47.774Z,18.57
2023-02-18T18:10:17.733Z,24.20
2023-02-18T18:12:47.750Z,24.60
2023-02-18T18:15:31.114Z,25.33
2023-02-18T18:18:01.000Z,22.83
2023-02-18T18:20:32.855Z,20.27
2023-02-18T18:23:03.877Z,26.03
2023-02-18T18:25:41.697Z,19.13
2023-02-18T18:28:14.271Z,19.50
2023-02-18T18:30:47.839Z,26.03
2023-02-18T18:33:19.902Z,36.97
2023-02-18T18:35:53.079Z,34.33
2023-02-18T18:38:24.783Z,34.90
2023-02-18T18:40:55.938Z,31.87
2023-02-18T18:43:31.491Z,34.53
2023-02-18T18:46:04.158Z,27.60
2023-02-18T18:48:33.486Z,26.80
2023-02-18T18:51:03.408Z,28.03
2023-02-18T18:53:36.076Z,29.63
2023-02-18T18:56:09.641Z,30.33
2023-02-18T18:58:39.619Z,32.97
2023-02-18T19:01:18.599Z,26.27
2023-02-18T19:03:49.843Z,28.07
2023-02-18T19:06:19.844Z,28.67
2023-02-18T19:08:49.120Z,27.53
2023-02-18T19:11:19.070Z,25.93
2023-02-18T19:13:48.830Z,26.00
2023-02-18T19:16:30.559Z,23.67
2023-02-18T19:19:01.591Z,26.37
2023-02-18T19:21:32.749Z,22.50
2023-02-18T19:24:02.704Z,33.33
2023-02-18T19:26:41.690Z,36.60
2023-02-18T19:29:13.561Z,31.93
2023-02-18T19:31:45.477Z,23.33
2023-02-18T19:34:15.546Z,23.80
2023-02-18T19:36:45.627Z,26.67
2023-02-18T19:39:15.771Z,25.20
2023-02-18T19:41:46.039Z,23.80
2023-02-18T19:44:15.687Z,22.57
2023-02-18T19:46:47.201Z,27.03
2023-02-18T19:49:17.122Z,22.83
2023-02-18T19:51:47.610Z,17.97
2023-02-18T19:54:16.717Z,19.40
2023-02-18T19:56:46.806Z,17.93
2023-02-18T19:59:16.929Z,24.43
2023-02-18T20:01:51.568Z,23.17
2023-02-18T20:04:21.624Z,22.77
2023-02-18T20:06:52.852Z,20.17
2023-02-18T20:09:21.689Z,26.00
2023-02-18T20:11:51.319Z,23.93
2023-02-18T20:14:25.591Z,23.83
2023-02-18T20:17:00.914Z,26.83
2023-02-18T20:19:32.092Z,22.43
2023-02-18T20:22:02.733Z,21.53
2023-02-18T20:24:33.343Z,20.17
2023-02-18T20:27:04.347Z,21.80
2023-02-18T20:29:38.848Z,19.87
2023-02-18T20:32:13.527Z,23.53
2023-02-18T20:34:44.097Z,18.57
2023-02-18T20:37:16.921Z,19.23
2023-02-18T20:39:47.300Z,19.47
2023-02-18T20:42:17.511Z,22.33
2023-02-18T20:44:47.108Z,21.77
2023-02-18T20:47:18.077Z,20.60
2023-02-18T20:49:47.840Z,17.90
2023-02-18T20:52:19.555Z,14.90
2023-02-18T20:54:49.553Z,18.57
2023-02-18T20:57:19.725Z,17.97
2023-02-18T20:59:50.778Z,19.87
2023-02-18T21:02:21.448Z,18.07
2023-02-18T21:04:51.309Z,18.47
2023-02-18T21:07:22.954Z,22.47
2023-02-18T21:09:58.270Z,18.40
2023-02-18T21:12:31.591Z,15.23
2023-02-18T21:15:01.464Z,19.47
2023-02-18T21:17:32.456Z,18.70
2023-02-18T21:20:02.531Z,19.00
2023-02-18T21:22:32.107Z,16.43
2023-02-18T21:25:01.610Z,18.87
2023-02-18T21:27:32.382Z,20.03
2023-02-18T21:30:05.262Z,17.23
2023-02-18T21:32:35.508Z,17.77
2023-02-18T21:35:04.671Z,15.13
2023-02-18T21:37:33.236Z,17.40
2023-02-18T21:40:02.823Z,19.43
2023-02-18T21:42:33.097Z,19.60
2023-02-18T21:45:03.812Z,17.23
2023-02-18T21:47:33.739Z,21.30
2023-02-18T21:50:04.631Z,15.77
2023-02-18T21:52:34.203Z,19.53
2023-02-18T21:55:02.968Z,18.57
2023-02-18T21:57:31.264Z,18.97
2023-02-18T22:00:03.774Z,19.17
2023-02-18T22:02:40.720Z,16.30
2023-02-18T22:05:10.908Z,17.53
2023-02-18T22:07:39.281Z,22.07
2023-02-18T22:10:08.094Z,17.50
2023-02-18T22:12:36.578Z,20.33
2023-02-18T22:15:05.672Z,19.03
2023-02-18T22:17:35.151Z,21.50
2023-02-18T22:20:05.125Z,20.60
2023-02-18T22:22:34.636Z,18.27
2023-02-18T22:25:02.755Z,20.73
2023-02-18T22:27:31.067Z,18.60
2023-02-18T22:29:59.216Z,18.00
2023-02-18T22:32:27.560Z,21.27
2023-02-18T22:34:55.768Z,19.77
2023-02-18T22:37:23.932Z,24.33
2023-02-18T22:39:53.508Z,16.90
2023-02-18T22:42:21.635Z,15.23
2023-02-18T22:44:49.846Z,16.50
2023-02-18T22:47:17.963Z,17.47
2023-02-18T22:49:46.031Z,16.80
2023-02-18T22:52:14.233Z,19.70
2023-02-18T22:54:42.470Z,16.70
2023-02-18T22:57:12.049Z,18.73
2023-02-18T22:59:40.201Z,24.43
2023-02-18T23:02:08.337Z,19.43
2023-02-18T23:04:36.465Z,19.23
2023-02-18T23:07:04.637Z,20.40
2023-02-18T23:09:32.807Z,20.87
2023-02-18T23:12:00.908Z,23.07
2023-02-18T23:14:30.677Z,22.43
2023-02-18T23:17:17.807Z,22.47
2023-02-18T23:19:48.410Z,21.27
2023-02-18T23:22:18.315Z,17.97
2023-02-18T23:24:49.693Z,19.47
2023-02-18T23:27:18.428Z,20.90
2023-02-18T23:29:48.370Z,26.57
2023-02-18T23:32:16.555Z,19.30
2023-02-18T23:34:44.675Z,18.20
2023-02-18T23:37:13.047Z,26.20
2023-02-18T23:39:41.389Z,22.70
2023-02-18T23:42:09.903Z,22.53
2023-02-18T23:44:38.066Z,25.60
2023-02-18T23:47:08.528Z,24.43
2023-02-18T23:49:36.617Z,25.40
2023-02-18T23:52:05.107Z,26.40
2023-02-18T23:54:33.260Z,26.90
2023-02-18T23:57:01.517Z,23.23
2023-02-18T23:59:29.612Z,22.80
